Time;durP1;ratioP1;P1;durP2;ratioP2;P2;SDS_P1;SDS_P2;PMS_P1;PMS_P2;Temp;Humidity;BMP_temperature;BMP_pressure;BME280_temperature;BME280_humidity;BME280_pressure;Samples;Min_cycle;Max_cycle;Signal;HPM_P1;HPM_P2
2021/01/28 00:01:13;;;;;;;16.63;10.53;;;;;;;-0.42;95.04;98446.39;1742318;81;21169;-64
2021/01/28 00:03:41;;;;;;;16.73;10.83;;;;;;;-0.41;95.09;98428.72;1738390;82;21185;-65
2021/01/28 00:06:10;;;;;;;11.27;9.43;;;;;;;-0.41;95.04;98412.88;1753012;81;21134;-64
2021/01/28 00:08:38;;;;;;;11.73;7.97;;;;;;;-0.43;94.88;98410.97;1742618;82;21164;-61
2021/01/28 00:11:05;;;;;;;13.73;9.63;;;;;;;-0.39;94.95;98420.90;1723906;83;21220;-61
2021/01/28 00:13:33;;;;;;;10.83;8.53;;;;;;;-0.38;94.83;98417.22;1727700;82;21213;-65
2021/01/28 00:16:00;;;;;;;12.90;9.20;;;;;;;-0.42;94.66;98423.13;1746256;82;21019;-66
2021/01/28 00:18:28;;;;;;;12.13;8.90;;;;;;;-0.41;94.79;98410.23;1752122;81;21145;-65
2021/01/28 00:20:55;;;;;;;14.10;10.10;;;;;;;-0.45;94.84;98401.42;1729570;82;21177;-64
2021/01/28 00:23:23;;;;;;;9.53;7.23;;;;;;;-0.48;94.83;98401.04;1729687;81;21613;-65
2021/01/28 00:25:52;;;;;;;11.67;10.17;;;;;;;-0.46;94.92;98414.83;1742606;81;21185;-65
2021/01/28 00:28:20;;;;;;;13.90;9.67;;;;;;;-0.47;95.04;98417.16;1714924;83;21173;-65
2021/01/28 00:30:51;;;;;;;11.57;8.20;;;;;;;-0.47;95.08;98414.52;1687868;84;21161;-64
2021/01/28 00:33:22;;;;;;;13.60;5.87;;;;;;;-0.42;95.05;98419.98;1716075;83;21093;-68
2021/01/28 00:35:51;;;;;;;16.43;11.07;;;;;;;-0.45;95.04;98420.41;1731553;81;21208;-65
2021/01/28 00:38:30;;;;;;;12.17;8.23;;;;;;;-0.43;94.97;98416.25;1722750;82;21596;-67
2021/01/28 00:41:01;;;;;;;15.87;9.23;;;;;;;-0.46;95.10;98413.00;1736668;81;21157;-67
2021/01/28 00:43:29;;;;;;;11.10;8.73;;;;;;;-0.43;95.05;98414.93;1740971;81;21208;-63
2021/01/28 00:45:56;;;;;;;9.73;7.97;;;;;;;-0.44;94.91;98416.76;1735685;81;21659;-64
2021/01/28 00:48:25;;;;;;;13.60;8.93;;;;;;;-0.42;94.93;98405.96;1723571;81;21165;-64
2021/01/28 00:50:54;;;;;;;11.17;9.97;;;;;;;-0.39;94.81;98368.08;1733346;81;21702;-69
2021/01/28 00:53:22;;;;;;;9.70;7.77;;;;;;;-0.41;94.56;98362.19;1733246;82;21003;-64
2021/01/28 00:55:51;;;;;;;17.17;11.70;;;;;;;-0.38;94.62;98369.67;1753413;81;21213;-64
2021/01/28 00:58:21;;;;;;;7.40;6.60;;;;;;;-0.34;94.53;98381.46;1740527;81;21160;-65
2021/01/28 01:00:50;;;;;;;10.23;7.33;;;;;;;-0.42;94.29;98380.38;1721445;82;22114;-65
2021/01/28 01:03:20;;;;;;;10.07;7.77;;;;;;;-0.40;94.31;98378.34;1728440;81;21234;-65
2021/01/28 01:05:49;;;;;;;9.87;7.63;;;;;;;-0.39;94.30;98385.25;1736802;81;21114;-64
2021/01/28 01:08:28;;;;;;;9.40;8.13;;;;;;;-0.37;94.24;98387.66;1740207;82;21150;-64
2021/01/28 01:11:01;;;;;;;10.47;9.17;;;;;;;-0.48;94.03;98389.16;1734185;81;21141;-66
2021/01/28 01:13:31;;;;;;;12.47;8.73;;;;;;;-0.46;94.20;98379.17;1740326;82;22346;-64
2021/01/28 01:16:12;;;;;;;11.37;9.03;;;;;;;-0.36;94.22;98380.04;1883215;76;22710;-66
2021/01/28 01:18:43;;;;;;;14.30;7.77;;;;;;;-0.38;94.07;98381.56;1785497;79;21153;-66
2021/01/28 01:21:11;;;;;;;15.40;11.60;;;;;;;-0.40;93.89;98380.98;1783275;80;21338;-65
2021/01/28 01:23:39;;;;;;;12.03;8.93;;;;;;;-0.44;93.87;98383.75;1759238;79;21892;-68
2021/01/28 01:26:11;;;;;;;12.33;8.77;;;;;;;-0.47;93.83;98383.64;1783424;79;21050;-67
2021/01/28 01:28:38;;;;;;;13.43;8.70;;;;;;;-0.45;93.88;98386.08;1773968;80;21456;-66
2021/01/28 01:31:16;;;;;;;11.23;8.40;;;;;;;-0.40;93.78;98377.02;1841677;76;22658;-67
2021/01/28 01:33:44;;;;;;;12.07;8.00;;;;;;;-0.46;93.73;98379.17;1785023;80;21595;-65
2021/01/28 01:36:14;;;;;;;11.20;8.57;;;;;;;-0.43;93.76;98362.90;1785549;79;21276;-67
2021/01/28 01:38:43;;;;;;;7.90;6.73;;;;;;;-0.40;93.61;98362.49;1789660;79;21114;-66
2021/01/28 01:41:11;;;;;;;12.50;9.00;;;;;;;-0.40;93.25;98365.64;1807017;79;21831;-66
2021/01/28 01:43:41;;;;;;;9.00;7.30;;;;;;;-0.43;93.10;98354.98;1807684;79;21149;-66
2021/01/28 01:46:12;;;;;;;11.23;9.60;;;;;;;-0.42;93.02;98348.67;1811843;78;20980;-67
2021/01/28 01:48:49;;;;;;;11.17;8.33;;;;;;;-0.45;93.04;98335.91;1817177;79;21349;-62
2021/01/28 01:51:22;;;;;;;11.60;8.30;;;;;;;-0.43;93.03;98333.85;1784620;79;21658;-64
2021/01/28 01:53:58;;;;;;;10.68;8.03;;;;;;;-0.37;92.91;98335.65;1750489;80;21006;-64
2021/01/28 01:56:39;;;;;;;12.53;8.87;;;;;;;-0.36;92.69;98350.48;1777186;80;21097;-64
2021/01/28 01:59:36;;;;;;;9.67;8.07;;;;;;;-0.33;92.53;98362.44;1745566;81;21128;-64
2021/01/28 02:02:13;;;;;;;8.70;6.57;;;;;;;-0.27;92.32;98354.48;1876074;75;22652;-67
2021/01/28 02:05:08;;;;;;;10.73;8.20;;;;;;;-0.30;91.99;98351.47;1783848;80;21038;-66
2021/01/28 02:07:49;;;;;;;9.43;7.57;;;;;;;-0.33;91.82;98340.80;1746090;80;22610;-66
2021/01/28 02:10:35;;;;;;;11.13;7.33;;;;;;;-0.37;91.72;98330.88;1767609;80;21158;-67
2021/01/28 02:13:08;;;;;;;6.37;5.77;;;;;;;-0.37;91.62;98325.08;1752547;80;21009;-67
2021/01/28 02:15:37;;;;;;;13.23;7.60;;;;;;;-0.39;91.68;98319.22;1776083;80;21141;-68
2021/01/28 02:18:06;;;;;;;8.20;7.30;;;;;;;-0.45;91.56;98320.88;1774120;80;21031;-68
2021/01/28 02:20:53;;;;;;;9.25;7.53;;;;;;;-0.45;91.64;98317.42;1789359;79;26681;-65
2021/01/28 02:23:37;;;;;;;11.57;8.30;;;;;;;-0.44;91.57;98311.13;1790448;79;21868;-64
2021/01/28 02:26:06;;;;;;;13.60;7.30;;;;;;;-0.41;91.47;98315.97;1765428;80;21078;-65
2021/01/28 02:28:34;;;;;;;9.60;7.70;;;;;;;-0.45;91.47;98309.00;1771342;80;21145;-63
2021/01/28 02:31:03;;;;;;;9.57;8.23;;;;;;;-0.43;91.52;98292.92;1758103;80;21165;-65
2021/01/28 02:33:54;;;;;;;10.73;9.13;;;;;;;-0.42;91.48;98300.33;1787632;79;22139;-65
2021/01/28 02:36:44;;;;;;;11.37;7.30;;;;;;;-0.46;91.52;98302.59;1752566;80;21641;-64
2021/01/28 02:39:38;;;;;;;10.72;8.85;;;;;;;-0.45;91.66;98277.81;1830357;76;27817;-64
2021/01/28 02:42:27;;;;;;;11.60;8.20;;;;;;;-0.53;91.74;98279.41;1816197;79;20979;-65
2021/01/28 02:45:13;;;;;;;11.57;8.40;;;;;;;-0.47;91.77;98276.70;1830357;76;27847;-64
2021/01/28 02:48:03;;;;;;;12.80;9.63;;;;;;;-0.41;91.77;98282.97;1812944;78;21026;-63
2021/01/28 02:50:36;;;;;;;10.73;8.70;;;;;;;-0.37;91.49;98280.19;1808250;79;21881;-64
2021/01/28 02:53:06;;;;;;;10.20;7.33;;;;;;;-0.32;91.42;98295.39;1814540;79;21046;-64
2021/01/28 02:55:35;;;;;;;14.93;8.80;;;;;;;-0.33;91.27;98309.11;1754552;80;20999;-63
2021/01/28 02:58:03;;;;;;;12.30;9.27;;;;;;;-0.35;91.25;98303.24;1784965;80;21003;-63
2021/01/28 03:00:35;;;;;;;13.23;9.27;;;;;;;-0.32;91.32;98302.80;1783359;80;21588;-63
2021/01/28 03:03:05;;;;;;;12.37;9.60;;;;;;;-0.28;91.22;98311.10;1809646;79;21333;-69
2021/01/28 03:05:36;;;;;;;16.23;10.07;;;;;;;-0.29;91.00;98312.15;1784453;80;20998;-64
2021/01/28 03:08:05;;;;;;;20.13;12.23;;;;;;;-0.32;90.98;98296.71;1785844;80;20991;-64
2021/01/28 03:10:32;;;;;;;14.07;10.13;;;;;;;-0.33;91.04;98284.02;1790482;79;21610;-64
2021/01/28 03:13:02;;;;;;;14.30;7.53;;;;;;;-0.32;91.09;98283.50;1815657;79;21174;-65
2021/01/28 03:15:41;;;;;;;15.83;10.50;;;;;;;-0.39;91.19;98312.62;1810260;79;21395;-64
2021/01/28 03:18:09;;;;;;;15.40;10.80;;;;;;;-0.41;91.37;98317.30;1785029;80;21646;-63
2021/01/28 03:20:38;;;;;;;15.97;10.10;;;;;;;-0.45;91.54;98320.06;1784909;80;21081;-64
2021/01/28 03:23:09;;;;;;;16.70;12.60;;;;;;;-0.46;91.74;98302.09;1752389;80;21223;-63
2021/01/28 03:25:55;;;;;;;15.50;10.20;;;;;;;-0.44;91.82;98301.89;1753955;81;21105;-63
2021/01/28 03:28:23;;;;;;;12.57;9.13;;;;;;;-0.42;91.87;98283.16;1784407;80;22069;-63
2021/01/28 03:30:53;;;;;;;17.77;11.00;;;;;;;-0.37;91.85;98279.37;1776842;80;21185;-64
2021/01/28 03:33:21;;;;;;;20.97;11.30;;;;;;;-0.40;91.72;98283.77;1755892;80;21113;-65
2021/01/28 03:35:50;;;;;;;13.07;8.77;;;;;;;-0.42;91.82;98287.13;1754025;81;21618;-63
2021/01/28 03:38:18;;;;;;;15.73;10.83;;;;;;;-0.39;91.94;98290.17;1753851;81;21148;-64
2021/01/28 03:40:47;;;;;;;15.50;8.83;;;;;;;-0.42;91.80;98295.86;1756573;80;21204;-64
2021/01/28 03:43:15;;;;;;;17.23;10.87;;;;;;;-0.46;91.92;98298.64;1765510;80;21148;-64
2021/01/28 03:45:42;;;;;;;15.60;10.37;;;;;;;-0.50;92.09;98289.02;1767977;81;21152;-65
2021/01/28 03:48:11;;;;;;;20.97;11.57;;;;;;;-0.47;92.15;98283.81;1768231;79;21034;-65
2021/01/28 03:51:01;;;;;;;17.37;12.57;;;;;;;-0.43;92.34;98287.64;1887534;76;26705;-64
2021/01/28 03:53:31;;;;;;;19.83;11.40;;;;;;;-0.48;92.34;98294.88;1845299;75;20979;-64
2021/01/28 03:56:00;;;;;;;14.00;10.53;;;;;;;-0.41;92.46;98294.03;1844635;77;21371;-71
2021/01/28 03:58:30;;;;;;;18.20;11.37;;;;;;;-0.37;92.29;98295.22;1846205;77;21074;-62
2021/01/28 04:01:05;;;;;;;17.47;11.53;;;;;;;-0.32;92.21;98291.42;1791848;77;20999;-65
2021/01/28 04:03:34;;;;;;;17.53;10.37;;;;;;;-0.36;91.79;98287.60;1826453;78;21041;-66
2021/01/28 04:06:06;;;;;;;16.87;11.53;;;;;;;-0.33;91.77;98282.69;1823789;77;21136;-66
2021/01/28 04:08:44;;;;;;;15.70;10.27;;;;;;;-0.31;91.71;98284.63;1825561;77;21030;-65
2021/01/28 04:11:30;;;;;;;32.77;15.67;;;;;;;-0.28;91.48;98287.33;1841124;77;21011;-63
2021/01/28 04:13:59;;;;;;;24.27;10.97;;;;;;;-0.32;91.37;98281.67;1857553;75;21019;-63
2021/01/28 04:16:27;;;;;;;22.23;12.17;;;;;;;-0.32;91.36;98275.58;1797959;79;21070;-63
2021/01/28 04:18:54;;;;;;;16.50;12.57;;;;;;;-0.31;91.29;98279.34;1822331;78;21093;-64
2021/01/28 04:21:29;;;;;;;13.00;8.97;;;;;;;-0.29;91.22;98291.02;1758551;78;21825;-63
2021/01/28 04:23:57;;;;;;;14.20;9.63;;;;;;;-0.35;91.18;98289.23;1777713;80;21163;-67
2021/01/28 04:26:27;;;;;;;13.37;10.20;;;;;;;-0.34;91.26;98297.45;1759396;81;21034;-65
2021/01/28 04:28:58;;;;;;;15.67;10.07;;;;;;;-0.34;91.25;98283.73;1760713;80;21229;-64
2021/01/28 04:31:42;;;;;;;15.17;9.97;;;;;;;-0.31;91.32;98289.91;1756600;80;21168;-64
2021/01/28 04:34:11;;;;;;;13.90;8.17;;;;;;;-0.26;91.17;98285.30;1761056;80;21407;-63
2021/01/28 04:36:39;;;;;;;12.53;8.57;;;;;;;-0.25;91.12;98273.20;1762273;80;21126;-65
2021/01/28 04:39:25;;;;;;;14.43;9.17;;;;;;;-0.22;90.97;98270.13;1784404;79;21132;-64
2021/01/28 04:41:55;;;;;;;14.30;9.07;;;;;;;-0.23;90.84;98273.78;1783342;80;21568;-64
2021/01/28 04:44:23;;;;;;;14.03;9.43;;;;;;;-0.22;90.77;98267.98;1796869;79;21923;-64
2021/01/28 04:47:03;;;;;;;11.93;9.07;;;;;;;-0.21;90.80;98273.58;1883327;76;22808;-65
2021/01/28 04:49:41;;;;;;;14.63;10.10;;;;;;;-0.23;90.83;98263.22;1781889;80;21571;-64
2021/01/28 04:52:29;;;;;;;13.60;8.50;;;;;;;-0.19;90.94;98267.03;1854406;77;21140;-63
2021/01/28 04:55:10;;;;;;;11.03;8.60;;;;;;;-0.10;90.73;98281.62;1887169;76;26905;-63
2021/01/28 04:57:43;;;;;;;12.87;9.53;;;;;;;-0.16;90.53;98293.05;1866609;76;21106;-64
2021/01/28 05:00:15;;;;;;;14.40;10.45;;;;;;;-0.18;90.45;98283.70;1825546;77;21194;-64
2021/01/28 05:02:45;;;;;;;11.68;9.10;;;;;;;-0.19;90.56;98282.11;1842041;77;21176;-63
2021/01/28 05:05:31;;;;;;;10.73;7.60;;;;;;;-0.16;90.59;98271.09;1839737;77;21002;-69
2021/01/28 05:08:00;;;;;;;11.63;9.07;;;;;;;-0.16;90.47;98272.42;1754885;81;21015;-65
2021/01/28 05:11:00;;;;;;;13.87;9.53;;;;;;;-0.21;90.46;98261.17;1693057;83;21199;-64
2021/01/28 05:13:37;;;;;;;13.20;10.07;;;;;;;-0.19;90.55;98248.55;1795833;79;22439;-64
2021/01/28 05:16:46;;;;;;;12.10;7.90;;;;;;;-0.17;90.54;98249.15;1797412;78;20970;-66
2021/01/28 05:19:39;;;;;;;16.10;10.43;;;;;;;-0.15;90.33;98248.44;1788241;78;21023;-64
2021/01/28 05:22:39;;;;;;;15.13;8.87;;;;;;;-0.17;90.31;98252.30;1762688;81;21031;-65
2021/01/28 05:25:17;;;;;;;11.23;8.43;;;;;;;-0.19;90.39;98231.38;1762522;80;21161;-64
2021/01/28 05:28:37;;;;;;;13.47;9.43;;;;;;;-0.20;90.47;98229.78;1762804;81;21779;-63
2021/01/28 05:31:31;;;;;;;14.37;9.80;;;;;;;-0.18;90.49;98226.91;1762629;81;21197;-65
2021/01/28 05:34:31;;;;;;;13.63;8.60;;;;;;;-0.25;90.49;98233.58;1762768;81;21154;-64
2021/01/28 05:37:06;;;;;;;14.80;10.40;;;;;;;-0.24;90.65;98247.06;1768967;79;21031;-65
2021/01/28 05:39:40;;;;;;;11.78;8.85;;;;;;;-0.21;90.74;98237.91;1760233;81;21189;-63
2021/01/28 05:42:28;;;;;;;11.27;8.87;;;;;;;-0.20;90.75;98240.34;1762163;81;21461;-66
2021/01/28 05:44:57;;;;;;;12.70;9.60;;;;;;;-0.18;90.74;98242.24;1761770;81;20956;-65
2021/01/28 05:47:33;;;;;;;14.67;10.70;;;;;;;-0.18;90.95;98230.86;1757221;81;21214;-64
2021/01/28 05:50:31;;;;;;;11.90;7.60;;;;;;;-0.16;91.00;98229.64;1883293;76;22724;-64
2021/01/28 05:53:17;;;;;;;12.80;9.70;;;;;;;-0.21;90.77;98245.84;1811295;79;21022;-63
2021/01/28 05:55:46;;;;;;;16.37;9.63;;;;;;;-0.20;90.75;98249.59;1849908;77;21559;-63
2021/01/28 05:58:25;;;;;;;16.07;9.93;;;;;;;-0.20;90.73;98247.45;1835748;77;21069;-62
2021/01/28 06:01:05;;;;;;;14.40;11.70;;;;;;;-0.21;90.66;98235.27;1808689;79;20916;-65
2021/01/28 06:07:21;;;;;;;14.10;9.80;;;;;;;-0.17;90.52;98243.05;1853293;77;20970;-64
2021/01/28 06:10:34;;;;;;;9.80;6.93;;;;;;;-0.16;90.63;98245.48;1847114;75;27313;-64
2021/01/28 06:13:50;;;;;;;13.30;9.73;;;;;;;-0.20;90.66;98244.31;1732895;80;20983;-62
2021/01/28 06:17:04;;;;;;;11.67;9.07;;;;;;;-0.12;90.65;98233.45;1845212;76;27377;-64
2021/01/28 06:20:12;;;;;;;15.00;11.13;;;;;;;-0.15;90.63;98233.91;1808547;78;21039;-63
2021/01/28 06:23:21;;;;;;;12.17;6.87;;;;;;;-0.18;90.64;98236.95;1779096;80;22429;-62
2021/01/28 06:26:14;;;;;;;12.13;10.50;;;;;;;-0.26;90.99;98225.36;1784749;79;21638;-61
2021/01/28 06:29:20;;;;;;;13.77;10.13;;;;;;;-0.26;91.17;98221.39;1781546;80;21243;-64
2021/01/28 06:32:12;;;;;;;17.17;12.10;;;;;;;-0.22;91.23;98217.80;1749718;80;20991;-65
2021/01/28 06:35:22;;;;;;;14.40;10.53;;;;;;;-0.19;91.45;98214.20;1889176;76;22620;-63
2021/01/28 06:38:28;;;;;;;17.43;11.67;;;;;;;-0.21;91.45;98219.42;1852193;77;20996;-63
2021/01/28 06:41:22;;;;;;;18.90;12.33;;;;;;;-0.25;91.78;98220.38;1779372;77;22070;-61
2021/01/28 06:44:22;;;;;;;17.43;12.47;;;;;;;-0.28;92.10;98216.83;1749772;80;21003;-64
2021/01/28 06:47:11;;;;;;;15.43;10.40;;;;;;;-0.26;92.34;98216.62;1774866;80;21572;-65
2021/01/28 06:50:08;;;;;;;17.43;12.47;;;;;;;-0.23;92.37;98218.30;1779941;80;21071;-62
2021/01/28 06:53:00;;;;;;;14.53;9.57;;;;;;;-0.22;92.22;98214.64;1780621;80;21035;-62
2021/01/28 06:56:17;;;;;;;17.37;11.17;;;;;;;-0.24;92.14;98224.61;1807435;78;21381;-64
2021/01/28 06:59:07;;;;;;;14.37;11.10;;;;;;;-0.24;92.08;98214.05;1814514;79;21047;-63
2021/01/28 07:02:01;;;;;;;17.50;12.13;;;;;;;-0.21;92.11;98208.34;1819105;78;21004;-63
2021/01/28 07:04:42;;;;;;;13.93;9.07;;;;;;;-0.24;91.91;98223.28;1814648;79;21110;-64
2021/01/28 07:07:24;;;;;;;14.30;11.47;;;;;;;-0.22;92.04;98213.84;1820334;78;21149;-65
2021/01/28 07:10:14;;;;;;;15.08;10.43;;;;;;;-0.18;91.95;98206.58;1812583;79;22553;-63
2021/01/28 07:12:54;;;;;;;14.90;11.50;;;;;;;-0.12;91.78;98194.34;1846100;75;22673;-62
2021/01/28 07:15:48;;;;;;;16.17;11.57;;;;;;;-0.14;91.84;98195.06;1817213;79;20916;-62
2021/01/28 07:18:33;;;;;;;15.20;11.43;;;;;;;-0.12;91.72;98187.73;1814637;79;21288;-62
2021/01/28 07:21:07;;;;;;;14.80;11.30;;;;;;;-0.11;91.76;98192.81;1785700;78;20991;-64
2021/01/28 07:23:38;;;;;;;17.07;10.67;;;;;;;-0.15;91.75;98190.83;1754234;80;21188;-63
2021/01/28 07:26:16;;;;;;;14.90;11.67;;;;;;;-0.16;91.81;98175.48;1785600;79;21058;-64
2021/01/28 07:28:46;;;;;;;18.07;12.53;;;;;;;-0.14;91.79;98183.17;1785872;80;20983;-63
2021/01/28 07:31:26;;;;;;;20.43;12.87;;;;;;;-0.16;91.90;98180.77;1785009;79;21182;-63
2021/01/28 07:34:03;;;;;;;21.20;14.17;;;;;;;-0.18;92.19;98193.88;1773236;80;21078;-63
2021/01/28 07:37:17;;;;;;;15.97;11.37;;;;;;;-0.13;92.32;98188.24;1883384;76;23966;-63
2021/01/28 07:39:57;;;;;;;14.00;10.63;;;;;;;-0.15;92.33;98194.27;1854548;77;21578;-63
2021/01/28 07:42:32;;;;;;;18.23;13.53;;;;;;;-0.10;92.43;98195.75;1778852;80;21211;-62
2021/01/28 07:45:34;;;;;;;14.37;9.23;;;;;;;-0.05;92.36;98199.84;1854309;77;21139;-69
2021/01/28 07:48:29;;;;;;;15.03;10.27;;;;;;;-0.01;92.20;98194.44;1854398;77;20994;-63
2021/01/28 07:51:34;;;;;;;19.23;13.43;;;;;;;-0.04;92.19;98192.72;1781472;80;21589;-64
2021/01/28 07:54:04;;;;;;;14.30;12.00;;;;;;;-0.06;92.27;98195.61;1850654;77;20960;-64
2021/01/28 07:56:44;;;;;;;19.73;11.73;;;;;;;-0.06;92.66;98210.65;1854347;77;21390;-64
2021/01/28 07:59:35;;;;;;;14.43;10.23;;;;;;;-0.10;93.04;98196.27;1847125;77;21172;-63
2021/01/28 08:02:29;;;;;;;11.57;9.97;;;;;;;-0.07;93.42;98195.30;1854106;77;20971;-65
2021/01/28 08:05:11;;;;;;;13.53;11.17;;;;;;;-0.06;93.54;98188.19;1842213;77;21677;-66
2021/01/28 08:07:45;;;;;;;15.00;11.83;;;;;;;-0.07;93.56;98189.20;1820031;77;21606;-67
2021/01/28 08:10:26;;;;;;;16.93;11.57;;;;;;;-0.08;93.97;98214.01;1825532;77;21565;-64
2021/01/28 08:13:13;;;;;;;13.17;8.90;;;;;;;-0.05;94.18;98224.16;1830436;77;20995;-65
2021/01/28 08:15:49;;;;;;;15.60;12.20;;;;;;;-0.15;94.32;98215.41;1820950;78;21125;-64
2021/01/28 08:18:30;;;;;;;17.13;11.93;;;;;;;-0.10;94.78;98208.96;1789400;78;21050;-64
2021/01/28 08:21:25;;;;;;;16.40;12.13;;;;;;;-0.07;94.91;98200.59;1820906;78;21126;-64
2021/01/28 08:23:52;;;;;;;17.87;11.97;;;;;;;-0.03;95.03;98203.08;1821362;77;21258;-63
2021/01/28 08:26:33;;;;;;;16.17;12.17;;;;;;;-0.02;95.02;98198.61;1820886;78;21074;-64
2021/01/28 08:29:20;;;;;;;17.03;12.00;;;;;;;0.02;95.06;98191.05;1820848;78;20999;-65
2021/01/28 08:31:51;;;;;;;17.70;13.13;;;;;;;0.07;95.15;98191.20;1834360;77;21209;-63
2021/01/28 08:34:25;;;;;;;20.97;13.80;;;;;;;0.10;95.08;98198.17;1824058;78;21102;-66
2021/01/28 08:37:10;;;;;;;22.67;13.13;;;;;;;0.06;94.81;98190.89;1842930;77;22273;-67
2021/01/28 08:39:53;;;;;;;21.97;13.07;;;;;;;0.07;94.97;98172.70;1886577;76;22628;-63
2021/01/28 08:42:22;;;;;;;17.67;11.93;;;;;;;0.08;95.13;98184.38;1780229;80;21255;-64
2021/01/28 08:44:53;;;;;;;17.23;10.97;;;;;;;0.09;94.94;98187.33;1817791;78;22222;-64
2021/01/28 08:47:24;;;;;;;18.43;10.80;;;;;;;0.10;94.93;98185.46;1778246;80;21078;-64
2021/01/28 08:50:09;;;;;;;22.62;11.80;;;;;;;0.12;94.91;98172.85;1781529;80;20980;-64
2021/01/28 08:52:38;;;;;;;21.47;12.50;;;;;;;0.17;94.91;98175.13;1822939;78;21040;-64
2021/01/28 08:55:24;;;;;;;19.63;12.00;;;;;;;0.14;94.39;98165.52;1822837;78;21055;-64
2021/01/28 08:57:52;;;;;;;22.23;13.00;;;;;;;0.12;94.48;98172.85;1822371;78;21585;-66
2021/01/28 09:00:21;;;;;;;21.80;14.33;;;;;;;0.10;94.46;98191.56;1822107;78;21056;-65
2021/01/28 09:02:52;;;;;;;14.53;10.47;;;;;;;0.12;94.60;98176.81;1834647;77;21003;-65
2021/01/28 09:05:25;;;;;;;26.40;15.53;;;;;;;0.14;94.60;98180.06;1832810;77;21043;-63
2021/01/28 09:07:55;;;;;;;16.33;11.67;;;;;;;0.20;94.87;98178.64;1811657;79;21090;-64
2021/01/28 09:10:39;;;;;;;18.60;13.03;;;;;;;0.19;94.24;98166.45;1818014;78;21556;-64
2021/01/28 09:13:26;;;;;;;17.60;12.25;;;;;;;0.20;94.08;98180.48;1820643;78;21171;-63
2021/01/28 09:16:17;;;;;;;17.17;12.07;;;;;;;0.21;94.10;98155.66;1815622;78;21106;-64
2021/01/28 09:18:49;;;;;;;20.07;12.77;;;;;;;0.23;94.13;98156.27;1798538;79;21138;-68
2021/01/28 09:21:20;;;;;;;17.60;12.47;;;;;;;0.27;94.10;98168.00;1781270;80;21106;-66
2021/01/28 09:24:03;;;;;;;21.30;14.23;;;;;;;0.30;94.15;98138.47;1781342;80;21166;-65
2021/01/28 09:26:38;;;;;;;20.00;13.97;;;;;;;0.36;94.07;98128.34;1794706;79;21149;-66
2021/01/28 09:29:15;;;;;;;25.03;15.70;;;;;;;0.33;93.89;98142.02;1788573;80;21145;-64
2021/01/28 09:31:43;;;;;;;21.57;14.77;;;;;;;0.34;93.94;98140.96;1806912;79;21049;-65
2021/01/28 09:34:25;;;;;;;21.40;15.07;;;;;;;0.34;93.78;98137.80;1758517;80;21173;-66
2021/01/28 09:37:00;;;;;;;26.20;12.10;;;;;;;0.35;93.73;98123.56;1755932;81;21324;-65
2021/01/28 09:39:38;;;;;;;18.93;14.17;;;;;;;0.33;93.78;98123.50;1757336;81;21161;-66
2021/01/28 09:42:33;;;;;;;28.37;15.57;;;;;;;0.33;94.02;98120.35;1770574;79;21230;-64
2021/01/28 09:45:10;;;;;;;22.30;14.57;;;;;;;0.31;94.24;98130.84;1784532;79;21181;-66
2021/01/28 09:47:38;;;;;;;19.30;12.43;;;;;;;0.32;94.30;98137.75;1746899;81;21181;-66
2021/01/28 09:50:12;;;;;;;18.20;12.00;;;;;;;0.35;94.49;98138.10;1758593;81;21022;-67
2021/01/28 09:52:43;;;;;;;24.70;14.80;;;;;;;0.40;94.66;98142.21;1773747;80;21006;-66
2021/01/28 09:55:19;;;;;;;24.13;15.40;;;;;;;0.42;94.80;98145.97;1773989;80;21033;-67
2021/01/28 09:57:47;;;;;;;21.83;13.83;;;;;;;0.45;94.78;98133.61;1773811;80;21026;-68
2021/01/28 10:00:19;;;;;;;20.87;11.10;;;;;;;0.40;94.81;98122.38;1755688;80;21172;-65
2021/01/28 10:02:50;;;;;;;18.67;11.00;;;;;;;0.43;95.06;98125.11;1744588;81;22052;-67
2021/01/28 10:05:21;;;;;;;14.97;10.83;;;;;;;0.42;95.19;98127.45;1729909;80;21792;-65
2021/01/28 10:07:50;;;;;;;19.57;12.27;;;;;;;0.43;95.27;98124.56;1719792;81;21014;-67
2021/01/28 10:10:25;;;;;;;12.20;7.87;;;;;;;0.46;95.43;98110.63;1754794;80;21218;-65
2021/01/28 10:12:55;;;;;;;19.30;11.97;;;;;;;0.40;95.15;98113.64;1743212;82;21168;-70
2021/01/28 10:15:24;;;;;;;14.17;9.00;;;;;;;0.31;95.85;98136.94;1758341;80;21233;-68
2021/01/28 10:17:53;;;;;;;13.57;10.17;;;;;;;0.29;96.15;98119.67;1770836;80;21192;-67
2021/01/28 10:20:21;;;;;;;15.60;10.00;;;;;;;0.31;96.29;98116.30;1759574;79;21678;-66
2021/01/28 10:22:51;;;;;;;15.47;11.47;;;;;;;0.37;96.44;98121.52;1733005;82;21050;-65
2021/01/28 10:25:20;;;;;;;12.77;9.80;;;;;;;0.41;96.21;98116.06;1764040;81;21198;-67
2021/01/28 10:27:50;;;;;;;14.40;10.40;;;;;;;0.44;95.97;98106.87;1731825;81;21069;-67
2021/01/28 10:30:19;;;;;;;17.40;10.23;;;;;;;0.43;95.56;98119.82;1722353;82;21288;-64
2021/01/28 10:32:48;;;;;;;15.37;9.27;;;;;;;0.45;95.51;98095.27;1768714;81;21086;-62
2021/01/28 10:35:19;;;;;;;20.27;11.90;;;;;;;0.49;95.61;98094.30;1752382;81;21169;-65
2021/01/28 10:37:47;;;;;;;13.07;10.00;;;;;;;0.48;95.60;98090.84;1729388;80;21590;-63
2021/01/28 10:40:15;;;;;;;11.13;7.37;;;;;;;0.51;95.69;98097.53;1704446;82;21338;-65
2021/01/28 10:42:43;;;;;;;15.80;10.97;;;;;;;0.55;95.49;98103.98;1705691;82;21165;-67
2021/01/28 10:45:18;;;;;;;21.10;10.67;;;;;;;0.50;95.39;98109.14;1725655;82;21034;-65
2021/01/28 10:47:46;;;;;;;14.10;10.30;;;;;;;0.54;95.47;98107.66;1729220;82;21217;-65
2021/01/28 10:50:15;;;;;;;19.73;12.60;;;;;;;0.57;95.40;98102.74;1720158;82;21161;-66
2021/01/28 10:52:44;;;;;;;17.50;10.70;;;;;;;0.58;95.21;98104.34;1711156;82;21238;-65
2021/01/28 10:55:12;;;;;;;21.63;11.83;;;;;;;0.56;95.16;98114.35;1730336;82;21192;-68
2021/01/28 10:57:40;;;;;;;16.60;9.23;;;;;;;0.57;95.26;98106.71;1716752;83;21629;-68
2021/01/28 11:00:10;;;;;;;13.63;10.03;;;;;;;0.57;95.17;98111.19;1699781;84;21666;-68
2021/01/28 11:02:39;;;;;;;21.63;10.97;;;;;;;0.55;95.13;98114.05;1712263;83;21591;-69
2021/01/28 11:05:10;;;;;;;16.63;10.03;;;;;;;0.58;95.22;98111.46;1712059;83;21030;-67
2021/01/28 11:07:38;;;;;;;16.27;9.80;;;;;;;0.59;95.10;98103.31;1695546;83;21205;-70
2021/01/28 11:10:10;;;;;;;13.73;8.67;;;;;;;0.63;95.05;98096.53;1728913;83;21187;-69
2021/01/28 11:12:39;;;;;;;13.33;7.90;;;;;;;0.62;94.94;98090.98;1728883;82;21160;-72
2021/01/28 11:15:08;;;;;;;10.13;7.57;;;;;;;0.62;95.10;98094.14;1683825;85;21160;-68
2021/01/28 11:17:35;;;;;;;13.20;8.70;;;;;;;0.62;95.17;98100.23;1683795;85;22299;-68
2021/01/28 11:20:06;;;;;;;13.70;10.80;;;;;;;0.62;95.16;98102.87;1690502;83;21037;-72
2021/01/28 11:22:33;;;;;;;11.40;8.07;;;;;;;0.61;95.14;98085.91;1711852;83;21566;-68
2021/01/28 11:25:00;;;;;;;11.27;8.70;;;;;;;0.58;95.00;98085.82;1728809;83;21057;-67
2021/01/28 11:27:28;;;;;;;9.47;7.07;;;;;;;0.56;95.12;98082.61;1699728;83;21171;-66
2021/01/28 11:29:56;;;;;;;9.10;6.70;;;;;;;0.58;95.33;98087.66;1727414;83;21612;-71
2021/01/28 11:32:24;;;;;;;7.33;5.67;;;;;;;0.60;95.43;98085.09;1721189;83;21050;-71
2021/01/28 11:34:52;;;;;;;9.27;6.70;;;;;;;0.62;95.50;98067.69;1726908;83;21153;-69
2021/01/28 11:37:20;;;;;;;10.23;7.13;;;;;;;0.60;95.41;98060.48;1682923;84;21234;-72
2021/01/28 11:39:49;;;;;;;7.27;5.97;;;;;;;0.55;95.20;98107.95;1751492;80;21185;-72
2021/01/28 11:42:18;;;;;;;8.73;6.53;;;;;;;0.50;95.26;98087.47;1730855;82;23394;-71
2021/01/28 11:44:45;;;;;;;10.37;7.77;;;;;;;0.49;95.44;98079.75;1705528;84;21625;-74
2021/01/28 11:47:13;;;;;;;9.10;6.80;;;;;;;0.54;95.64;98072.77;1713816;83;21120;-71
2021/01/28 11:49:43;;;;;;;11.43;9.07;;;;;;;0.57;95.89;98074.97;1714141;83;21622;-71
2021/01/28 11:52:11;;;;;;;8.80;6.93;;;;;;;0.63;96.06;98069.27;1753150;81;21132;-71
2021/01/28 11:54:39;;;;;;;9.73;6.03;;;;;;;0.66;95.89;98056.94;1713480;82;22799;-69
2021/01/28 11:57:06;;;;;;;7.83;6.80;;;;;;;0.69;95.81;98068.38;1720409;82;20981;-73
2021/01/28 11:59:34;;;;;;;7.73;6.73;;;;;;;0.68;95.31;98038.98;1743219;82;21137;-77
2021/01/28 12:02:02;;;;;;;8.90;6.97;;;;;;;0.67;95.18;98044.01;1743406;82;21168;-77
2021/01/28 12:04:30;;;;;;;7.57;5.73;;;;;;;0.68;95.11;98041.63;1731495;81;21179;-80
2021/01/28 12:06:57;;;;;;;8.77;6.60;;;;;;;0.65;95.08;98056.13;1752496;81;21192;-77
2021/01/28 12:09:26;;;;;;;9.30;7.37;;;;;;;0.67;95.31;98032.10;1717597;82;21174;-72
2021/01/28 12:11:53;;;;;;;8.90;6.50;;;;;;;0.69;95.46;98029.51;1734740;81;21211;-73